Time;durP1;ratioP1;P1;durP2;ratioP2;P2;SDS_P1;SDS_P2;PMS_P1;PMS_P2;Temp;Humidity;BMP_temperature;BMP_pressure;BME280_temperature;BME280_humidity;BME280_pressure;Samples;Min_cycle;Max_cycle;Signal;HPM_P1;HPM_P2
2021/03/25 05:01:45;;;;;;;76.60;38.30;;;4.50;99.90;;;;;;5282364;23;20303;-70
2021/03/25 05:04:13;;;;;;;83.53;42.20;;;4.50;99.90;;;;;;4897246;29;20218;-70
2021/03/25 05:06:46;;;;;;;83.70;38.92;;;4.50;99.90;;;;;;4897975;29;20227;-70
2021/03/25 05:09:14;;;;;;;76.13;35.78;;;4.50;99.90;;;;;;4898231;29;20629;-70
2021/03/25 05:11:40;;;;;;;76.60;39.17;;;4.50;99.90;;;;;;4897754;29;20314;-70
2021/03/25 05:14:13;;;;;;;76.75;38.95;;;4.50;99.90;;;;;;4897014;29;20239;-70
2021/03/25 05:16:47;;;;;;;80.53;38.53;;;4.50;99.90;;;;;;4897944;29;20218;-70
2021/03/25 05:19:22;;;;;;;89.95;39.30;;;4.50;99.90;;;;;;4896984;29;20215;-70
2021/03/25 05:21:59;;;;;;;76.65;37.00;;;4.50;99.90;;;;;;4897980;29;20668;-70
2021/03/25 05:24:30;;;;;;;70.07;35.92;;;4.50;99.90;;;;;;4898103;29;20211;-70
2021/03/25 05:27:00;;;;;;;76.07;39.20;;;4.50;99.90;;;;;;4897964;29;20238;-70
2021/03/25 05:29:28;;;;;;;77.35;36.88;;;4.50;99.90;;;;;;4897955;29;20749;-70
2021/03/25 05:31:57;;;;;;;87.47;38.88;;;4.50;99.90;;;;;;4898537;29;20321;-70
2021/03/25 05:34:25;;;;;;;78.95;37.67;;;4.50;99.90;;;;;;4896377;29;20203;-69
2021/03/25 05:36:53;;;;;;;76.63;39.42;;;4.60;99.90;;;;;;4897967;29;20215;-69
2021/03/25 05:39:19;;;;;;;70.70;34.40;;;4.60;99.90;;;;;;4897333;29;20244;-69
2021/03/25 05:41:53;;;;;;;73.88;37.25;;;4.60;99.90;;;;;;4897784;29;20276;-70
2021/03/25 05:44:49;;;;;;;69.10;35.47;;;4.60;99.90;;;;;;4897252;29;20225;-70
2021/03/25 05:47:42;;;;;;;69.55;36.72;;;4.60;99.90;;;;;;4897516;29;20231;-71
2021/03/25 05:50:22;;;;;;;77.05;38.85;;;4.60;99.90;;;;;;4897231;29;20215;-70
2021/03/25 05:53:01;;;;;;;71.85;38.60;;;4.70;99.90;;;;;;4897588;29;20215;-71
2021/03/25 05:55:44;;;;;;;65.15;35.38;;;4.70;99.90;;;;;;4897973;29;20226;-72
2021/03/25 05:58:20;;;;;;;69.18;35.15;;;4.80;99.90;;;;;;4897562;29;20203;-71
2021/03/25 06:00:54;;;;;;;68.18;37.20;;;4.80;99.90;;;;;;4896655;29;20238;-72
2021/03/25 06:03:22;;;;;;;64.28;35.85;;;4.90;99.90;;;;;;4897596;29;20207;-71
2021/03/25 06:05:55;;;;;;;65.15;34.17;;;5.00;99.90;;;;;;4897163;29;20218;-72
2021/03/25 06:08:38;;;;;;;61.55;34.80;;;5.00;99.90;;;;;;4897305;29;20212;-70
2021/03/25 06:11:20;;;;;;;57.95;33.95;;;5.10;99.90;;;;;;4897063;29;20278;-72
2021/03/25 06:14:08;;;;;;;60.35;33.22;;;5.20;99.90;;;;;;4896831;29;20229;-72
2021/03/25 06:16:48;;;;;;;65.40;34.65;;;5.30;99.90;;;;;;4897522;29;20280;-72
2021/03/25 06:19:32;;;;;;;62.92;35.40;;;5.40;99.90;;;;;;4897452;29;20217;-72
2021/03/25 06:22:07;;;;;;;58.88;33.90;;;5.50;99.90;;;;;;4897635;29;20246;-72
2021/03/25 06:25:02;;;;;;;62.50;33.00;;;5.60;99.90;;;;;;4901271;29;20214;-71
2021/03/25 06:27:38;;;;;;;59.38;32.30;;;5.60;99.90;;;;;;4900762;29;20247;-72
2021/03/25 06:30:09;;;;;;;51.28;30.92;;;5.60;99.90;;;;;;4900946;29;20222;-72
2021/03/25 06:32:50;;;;;;;61.97;33.08;;;5.70;99.90;;;;;;4901127;29;20214;-72
2021/03/25 06:35:23;;;;;;;58.17;33.20;;;5.80;99.90;;;;;;4900729;29;20690;-73
2021/03/25 06:37:56;;;;;;;61.10;35.30;;;5.90;99.90;;;;;;4901239;29;20625;-73
2021/03/25 06:40:26;;;;;;;58.10;33.55;;;6.00;99.90;;;;;;4901038;29;20215;-73
2021/03/25 06:42:59;;;;;;;55.85;33.20;;;6.00;99.90;;;;;;4901242;29;20238;-72
2021/03/25 06:45:29;;;;;;;62.50;35.38;;;6.10;99.90;;;;;;4900481;29;20210;-72
2021/03/25 06:48:01;;;;;;;60.38;35.53;;;6.20;99.90;;;;;;4901172;29;20235;-72
2021/03/25 06:50:32;;;;;;;66.95;39.88;;;6.20;99.90;;;;;;4903686;29;20261;-74
2021/03/25 06:53:09;;;;;;;57.55;33.10;;;6.30;99.90;;;;;;4908083;29;20302;-74
2021/03/25 06:55:36;;;;;;;63.40;34.50;;;6.50;99.90;;;;;;4907416;29;20215;-75
2021/03/25 06:58:06;;;;;;;53.38;34.88;;;6.50;99.90;;;;;;4907444;29;20211;-74
2021/03/25 07:00:39;;;;;;;62.17;35.45;;;6.50;99.90;;;;;;4906808;29;20222;-74
2021/03/25 07:03:07;;;;;;;60.35;35.67;;;6.50;99.90;;;;;;4906813;29;20222;-74
2021/03/25 07:05:36;;;;;;;58.03;35.22;;;6.60;99.90;;;;;;4906191;29;20362;-74
2021/03/25 07:08:08;;;;;;;57.55;34.42;;;6.70;99.90;;;;;;4905513;29;20249;-75
2021/03/25 07:10:34;;;;;;;59.05;32.90;;;6.80;99.90;;;;;;4904878;29;20247;-75
2021/03/25 07:13:05;;;;;;;51.35;31.33;;;7.00;99.90;;;;;;4905094;29;20601;-75
2021/03/25 07:15:33;;;;;;;68.18;38.92;;;7.10;99.90;;;;;;4901531;29;20247;-74
2021/03/25 07:18:04;;;;;;;74.93;46.00;;;7.20;99.90;;;;;;4891726;29;20227;-75
2021/03/25 07:20:32;;;;;;;58.45;39.85;;;7.30;99.90;;;;;;4902912;29;20302;-75
2021/03/25 07:23:03;;;;;;;62.90;37.97;;;7.40;99.90;;;;;;4904599;29;20218;-75
2021/03/25 07:25:32;;;;;;;67.40;39.90;;;7.50;99.90;;;;;;4904875;29;20716;-75
2021/03/25 07:28:00;;;;;;;61.53;36.65;;;7.70;99.90;;;;;;4905909;29;20698;-74
2021/03/25 07:30:38;;;;;;;53.78;33.55;;;7.80;99.90;;;;;;4905719;29;20215;-72
2021/03/25 07:33:09;;;;;;;55.35;33.55;;;7.90;99.90;;;;;;4905986;29;20218;-74
2021/03/25 07:35:38;;;;;;;49.95;33.13;;;8.10;99.90;;;;;;4903353;29;20215;-75
2021/03/25 07:38:21;;;;;;;50.90;33.17;;;8.20;99.90;;;;;;4904558;29;20211;-76
2021/03/25 07:40:47;;;;;;;56.88;33.35;;;8.30;99.90;;;;;;4903901;29;20290;-74
2021/03/25 07:43:18;;;;;;;56.75;33.50;;;8.40;99.90;;;;;;4904700;29;20219;-75
2021/03/25 07:45:44;;;;;;;49.35;32.25;;;8.40;99.90;;;;;;4905199;29;20208;-76
2021/03/25 07:48:18;;;;;;;49.90;32.10;;;8.40;99.90;;;;;;4905401;29;20668;-74
2021/03/25 07:50:45;;;;;;;43.17;29.15;;;8.50;99.90;;;;;;4905509;29;20263;-76
2021/03/25 07:53:25;;;;;;;47.85;30.70;;;8.50;99.90;;;;;;4905033;29;20212;-75
2021/03/25 07:56:05;;;;;;;46.05;29.70;;;8.60;99.90;;;;;;4904675;29;20211;-76
2021/03/25 07:58:37;;;;;;;42.90;29.50;;;8.60;99.90;;;;;;4905229;29;20211;-76
2021/03/25 08:01:13;;;;;;;42.35;26.83;;;8.70;99.90;;;;;;4904474;29;20723;-74
2021/03/25 08:03:48;;;;;;;48.90;29.65;;;8.80;99.90;;;;;;4903709;29;20303;-74
2021/03/25 08:06:20;;;;;;;44.70;29.20;;;8.80;99.90;;;;;;4904957;29;20230;-74
2021/03/25 08:08:59;;;;;;;57.17;40.00;;;9.00;99.90;;;;;;4904825;29;20275;-72
2021/03/25 08:11:25;;;;;;;56.90;33.25;;;9.00;99.90;;;;;;4898725;29;20246;-72
2021/03/25 08:13:56;;;;;;;45.83;28.20;;;9.10;99.90;;;;;;4898152;29;20215;-72
2021/03/25 08:16:25;;;;;;;40.90;27.48;;;9.20;99.90;;;;;;4899111;29;20207;-72
2021/03/25 08:19:02;;;;;;;39.38;25.55;;;9.30;99.90;;;;;;4898442;29;20211;-72
2021/03/25 08:21:50;;;;;;;45.00;29.25;;;9.40;99.90;;;;;;4898680;29;20242;-73
2021/03/25 08:24:57;;;;;;;37.80;25.70;;;9.40;99.90;;;;;;4880032;29;20219;-71
2021/03/25 08:27:38;;;;;;;39.53;25.65;;;9.50;99.90;;;;;;4879918;29;20236;-71
2021/03/25 08:30:26;;;;;;;45.00;27.40;;;9.60;99.90;;;;;;4879336;29;20208;-72
2021/03/25 08:33:02;;;;;;;43.47;27.00;;;9.60;99.90;;;;;;4879490;29;20216;-72
2021/03/25 08:35:34;;;;;;;37.60;26.92;;;9.70;99.90;;;;;;4878854;29;20216;-72
2021/03/25 08:38:27;;;;;;;37.58;25.67;;;9.80;99.90;;;;;;4879750;29;20310;-72
2021/03/25 08:40:58;;;;;;;34.63;23.30;;;9.90;99.90;;;;;;4898144;29;20235;-72
2021/03/25 08:43:29;;;;;;;37.20;25.40;;;10.00;99.90;;;;;;4898146;29;20672;-72
2021/03/25 08:46:01;;;;;;;39.13;22.98;;;10.10;99.90;;;;;;4897443;29;20211;-72
2021/03/25 08:48:32;;;;;;;34.25;22.42;;;10.20;99.90;;;;;;4898631;29;20254;-72
2021/03/25 08:51:03;;;;;;;34.22;24.15;;;10.20;99.90;;;;;;4897999;29;20790;-72
2021/03/25 08:53:43;;;;;;;35.85;24.65;;;10.30;99.90;;;;;;4898189;29;20226;-72
2021/03/25 08:56:23;;;;;;;34.83;24.55;;;10.30;99.90;;;;;;4898256;29;20207;-72
2021/03/25 08:58:53;;;;;;;33.33;23.05;;;10.40;99.90;;;;;;4898079;29;20214;-72
2021/03/25 09:01:27;;;;;;;35.40;23.63;;;10.40;99.90;;;;;;4902193;29;20246;-75
2021/03/25 09:03:59;;;;;;;31.35;23.38;;;10.40;99.90;;;;;;4905870;29;20627;-74
2021/03/25 09:06:29;;;;;;;31.60;22.23;;;10.50;99.90;;;;;;4906291;29;20242;-74
2021/03/25 09:09:00;;;;;;;35.42;23.95;;;10.50;99.90;;;;;;4906239;29;20211;-75
2021/03/25 09:11:27;;;;;;;35.70;22.52;;;10.60;99.90;;;;;;4906676;29;20230;-74
2021/03/25 09:13:58;;;;;;;32.90;21.95;;;10.70;99.90;;;;;;4905542;29;20298;-73
2021/03/25 09:16:28;;;;;;;33.65;21.73;;;10.70;99.90;;;;;;4906621;29;20211;-73
2021/03/25 09:18:55;;;;;;;29.52;20.30;;;10.80;99.90;;;;;;4906529;29;20218;-73
2021/03/25 09:21:24;;;;;;;30.88;20.60;;;10.90;99.90;;;;;;4906243;29;20239;-75
2021/03/25 09:24:16;;;;;;;28.92;20.23;;;11.00;99.90;;;;;;4906569;29;20223;-73
2021/03/25 09:27:02;;;;;;;17.13;12.27;;;11.10;99.90;;;;;;4903362;29;20238;-73
2021/03/25 09:29:32;;;;;;;18.50;12.88;;;11.20;99.90;;;;;;4906073;29;20235;-74
2021/03/25 09:32:34;;;;;;;17.60;12.10;;;11.30;99.90;;;;;;4906616;29;20235;-73
2021/03/25 09:35:02;;;;;;;13.85;11.85;;;11.40;99.90;;;;;;4906517;29;20234;-74
2021/03/25 09:37:32;;;;;;;16.85;12.93;;;11.40;99.90;;;;;;4906545;29;20204;-74
2021/03/25 09:40:35;;;;;;;16.42;13.88;;;11.50;99.90;;;;;;4906565;29;20286;-73
2021/03/25 09:43:41;;;;;;;20.92;14.88;;;11.60;99.90;;;;;;4897045;29;20207;-72
2021/03/25 09:46:33;;;;;;;19.55;13.98;;;11.70;99.90;;;;;;4887429;29;20223;-74
2021/03/25 09:49:17;;;;;;;18.65;14.70;;;11.70;99.90;;;;;;4881014;29;20212;-71
2021/03/25 09:51:43;;;;;;;19.48;14.27;;;11.80;99.90;;;;;;4878555;29;20295;-71
2021/03/25 09:54:22;;;;;;;20.40;16.02;;;11.90;99.90;;;;;;4877935;29;20238;-71
2021/03/25 09:57:19;;;;;;;19.33;15.43;;;12.00;99.90;;;;;;4878798;29;20212;-72
2021/03/25 09:59:48;;;;;;;20.58;15.70;;;12.00;99.90;;;;;;4878084;29;20223;-71
2021/03/25 10:02:51;;;;;;;18.65;14.90;;;12.10;99.90;;;;;;4896461;29;20246;-72
2021/03/25 10:05:34;;;;;;;20.55;15.05;;;12.20;99.90;;;;;;4896768;29;20210;-71
2021/03/25 10:08:03;;;;;;;18.90;14.27;;;12.30;99.90;;;;;;4896978;29;20231;-71
2021/03/25 10:10:41;;;;;;;20.53;14.63;;;12.30;99.90;;;;;;4896895;29;20487;-71
2021/03/25 10:13:43;;;;;;;17.10;13.47;;;12.30;99.90;;;;;;4897322;29;20578;-71
2021/03/25 10:16:31;;;;;;;13.23;10.40;;;12.30;99.90;;;;;;4897055;29;20466;-71
2021/03/25 10:19:01;;;;;;;15.50;9.52;;;12.20;99.90;;;;;;4878397;29;20848;-71
2021/03/25 10:22:01;;;;;;;18.17;15.10;;;12.10;99.90;;;;;;4895443;29;20604;-71
2021/03/25 10:24:40;;;;;;;13.57;9.90;;;12.00;99.90;;;;;;4896868;29;20211;-71
2021/03/25 10:27:26;;;;;;;12.55;9.10;;;12.10;99.90;;;;;;4897282;29;20731;-71
2021/03/25 10:29:53;;;;;;;12.77;9.93;;;12.20;99.90;;;;;;4886507;29;20214;-71
2021/03/25 10:32:26;;;;;;;11.65;8.50;;;12.30;99.90;;;;;;4896480;29;20235;-71
2021/03/25 10:34:59;;;;;;;19.92;11.30;;;12.40;99.90;;;;;;4896072;29;20207;-71
2021/03/25 10:37:33;;;;;;;15.05;10.45;;;12.50;99.90;;;;;;4897496;29;20211;-72
2021/03/25 10:40:08;;;;;;;14.95;11.48;;;12.50;99.90;;;;;;4896681;29;20217;-70
2021/03/25 10:42:37;;;;;;;11.87;10.60;;;12.60;99.90;;;;;;4897071;29;20206;-70
2021/03/25 10:45:23;;;;;;;17.08;11.45;;;12.70;99.90;;;;;;4896283;29;20471;-70
2021/03/25 10:47:55;;;;;;;13.97;11.77;;;12.70;99.90;;;;;;4897484;29;20231;-72
2021/03/25 10:50:30;;;;;;;16.50;11.93;;;12.80;99.90;;;;;;4895974;29;20467;-72
2021/03/25 10:53:02;;;;;;;16.58;11.90;;;12.80;99.90;;;;;;4897043;29;20467;-72
2021/03/25 10:55:30;;;;;;;13.48;10.75;;;12.80;99.90;;;;;;4897149;29;20301;-72
2021/03/25 10:58:03;;;;;;;15.73;11.73;;;12.90;99.90;;;;;;4897085;29;20208;-72
2021/03/25 11:00:32;;;;;;;16.30;13.63;;;12.90;99.90;;;;;;4895894;29;20487;-72
2021/03/25 11:03:01;;;;;;;16.00;11.87;;;12.90;99.90;;;;;;4897200;29;20471;-72
2021/03/25 11:05:29;;;;;;;12.45;10.40;;;12.80;99.90;;;;;;4897014;29;20956;-72
2021/03/25 11:07:58;;;;;;;13.45;11.73;;;12.80;99.90;;;;;;4902217;29;20238;-74
2021/03/25 11:10:26;;;;;;;14.30;11.30;;;12.80;99.90;;;;;;4898547;29;20219;-68
2021/03/25 11:13:00;;;;;;;13.33;10.93;;;12.90;99.90;;;;;;4899637;29;20471;-68
2021/03/25 11:15:35;;;;;;;14.20;11.90;;;12.90;99.90;;;;;;4899328;29;20471;-67
2021/03/25 11:18:16;;;;;;;14.17;10.77;;;13.00;99.90;;;;;;4900101;29;20207;-68
2021/03/25 11:20:43;;;;;;;10.83;9.73;;;13.00;99.90;;;;;;4899423;29;20948;-68
2021/03/25 11:23:14;;;;;;;11.43;9.63;;;13.10;99.90;;;;;;4899276;29;20538;-71
2021/03/25 11:25:40;;;;;;;11.70;9.83;;;13.10;99.90;;;;;;4899457;29;20481;-73
2021/03/25 11:28:11;;;;;;;14.10;10.20;;;13.20;99.90;;;;;;4899642;29;20573;-70
2021/03/25 11:30:40;;;;;;;10.60;9.03;;;13.30;99.90;;;;;;4898693;29;21043;-72
2021/03/25 11:33:34;;;;;;;11.33;9.77;;;13.40;99.90;;;;;;4899171;29;20474;-70
2021/03/25 11:36:03;;;;;;;9.73;8.53;;;13.50;99.90;;;;;;4898697;29;20520;-71
2021/03/25 11:38:35;;;;;;;10.30;7.97;;;13.60;99.90;;;;;;4898973;29;20829;-71
2021/03/25 11:41:05;;;;;;;9.40;8.50;;;13.70;99.90;;;;;;4899152;29;20859;-71
2021/03/25 11:43:48;;;;;;;8.70;7.90;;;13.90;99.90;;;;;;4899697;29;20472;-71
2021/03/25 11:46:28;;;;;;;9.30;8.40;;;14.00;99.90;;;;;;4899893;29;20570;-71
2021/03/25 11:49:05;;;;;;;9.87;7.73;;;14.00;99.90;;;;;;4899155;29;20459;-71
2021/03/25 11:51:34;;;;;;;7.40;6.43;;;14.00;99.90;;;;;;4899626;29;20483;-72
2021/03/25 11:54:03;;;;;;;9.33;7.70;;;13.90;99.90;;;;;;4898976;29;20470;-72
2021/03/25 11:56:32;;;;;;;6.47;5.87;;;13.90;99.90;;;;;;4898813;29;20459;-70
2021/03/25 11:59:02;;;;;;;6.80;6.10;;;13.90;99.90;;;;;;4898693;29;20466;-73
2021/03/25 12:01:31;;;;;;;6.13;5.47;;;13.90;99.90;;;;;;4899142;29;20502;-71
2021/03/25 12:04:00;;;;;;;6.90;6.30;;;14.00;99.90;;;;;;4898978;29;20471;-72
2021/03/25 12:06:29;;;;;;;8.00;7.30;;;14.20;99.90;;;;;;4899470;29;20471;-71
2021/03/25 12:09:13;;;;;;;5.57;5.07;;;14.40;99.90;;;;;;4899333;29;20799;-71
2021/03/25 12:11:42;;;;;;;6.00;5.40;;;14.50;99.90;;;;;;4899481;29;20487;-71
2021/03/25 12:14:09;;;;;;;6.27;5.73;;;14.60;99.90;;;;;;4898295;29;20463;-72
2021/03/25 12:16:36;;;;;;;6.67;5.93;;;14.60;99.90;;;;;;4899800;29;20471;-71
2021/03/25 12:19:04;;;;;;;5.23;4.83;;;14.60;99.90;;;;;;4904124;29;20554;-73
2021/03/25 12:21:30;;;;;;;5.80;5.30;;;14.60;99.90;;;;;;4904301;29;20479;-72
2021/03/25 12:23:59;;;;;;;5.27;4.97;;;14.60;99.90;;;;;;4904679;29;21004;-74
2021/03/25 12:26:28;;;;;;;6.20;5.60;;;14.60;99.90;;;;;;4904099;29;20499;-75
2021/03/25 12:28:54;;;;;;;5.67;5.23;;;14.60;99.90;;;;;;4903911;29;20869;-74
2021/03/25 12:31:23;;;;;;;6.37;5.10;;;14.60;99.90;;;;;;4905127;29;20515;-75
2021/03/25 12:33:52;;;;;;;6.57;5.27;;;14.70;99.90;;;;;;4903924;29;20500;-74
2021/03/25 12:36:19;;;;;;;5.97;5.57;;;14.80;99.90;;;;;;4904520;29;20535;-75
2021/03/25 12:38:46;;;;;;;6.47;5.87;;;14.80;99.90;;;;;;4902003;29;21031;-71
2021/03/25 12:41:19;;;;;;;5.77;5.20;;;14.70;99.90;;;;;;4899327;29;20514;-74
2021/03/25 12:43:46;;;;;;;6.63;5.80;;;14.60;99.90;;;;;;4898970;29;20550;-71
2021/03/25 12:46:12;;;;;;;7.43;6.73;;;14.60;99.90;;;;;;4899044;29;20467;-74
2021/03/25 12:48:39;;;;;;;7.27;6.60;;;14.50;99.90;;;;;;4898849;29;20498;-73
2021/03/25 12:51:08;;;;;;;5.00;4.57;;;14.40;99.90;;;;;;4898479;29;20487;-72
2021/03/25 12:53:34;;;;;;;5.47;4.97;;;14.30;99.90;;;;;;4899356;29;20853;-74
2021/03/25 12:56:03;;;;;;;5.37;4.87;;;14.30;99.90;;;;;;4899163;29;20467;-71
2021/03/25 12:58:33;;;;;;;4.47;4.17;;;14.30;99.90;;;;;;4898486;29;20467;-71
2021/03/25 13:01:03;;;;;;;6.03;5.10;;;14.30;99.90;;;;;;4897647;29;20940;-71
2021/03/25 13:03:29;;;;;;;4.17;3.87;;;14.40;99.90;;;;;;4897478;29;20464;-71
2021/03/25 13:05:56;;;;;;;5.10;4.63;;;14.50;99.90;;;;;;4897722;29;20472;-71
2021/03/25 13:08:23;;;;;;;8.13;5.70;;;14.60;99.90;;;;;;4897881;29;20483;-71
2021/03/25 13:10:49;;;;;;;5.70;5.30;;;14.60;99.90;;;;;;4897541;29;20574;-71
2021/03/25 13:13:16;;;;;;;6.50;5.23;;;14.70;99.90;;;;;;4897401;29;20943;-71
2021/03/25 13:15:42;;;;;;;5.43;5.03;;;14.70;99.90;;;;;;4898175;29;20467;-72
2021/03/25 13:18:10;;;;;;;4.83;4.53;;;14.80;99.90;;;;;;4899486;29;20828;-73
2021/03/25 13:20:36;;;;;;;6.13;5.53;;;14.90;99.90;;;;;;4898178;29;20647;-73
2021/03/25 13:23:03;;;;;;;6.63;4.70;;;15.00;99.90;;;;;;4898946;29;20901;-73
2021/03/25 13:25:32;;;;;;;4.80;4.43;;;15.10;99.90;;;;;;4899231;29;20909;-73
2021/03/25 13:27:59;;;;;;;5.87;5.17;;;15.10;99.90;;;;;;4899155;29;20491;-73
2021/03/25 13:30:26;;;;;;;7.33;6.07;;;15.10;99.90;;;;;;4898386;29;20474;-72
2021/03/25 13:32:52;;;;;;;5.80;5.40;;;15.10;99.90;;;;;;4898322;29;20468;-73
2021/03/25 13:35:20;;;;;;;5.30;4.90;;;15.10;99.90;;;;;;4898716;29;20951;-72
2021/03/25 13:37:46;;;;;;;4.97;4.50;;;15.10;99.90;;;;;;4898551;29;20466;-73
2021/03/25 13:40:15;;;;;;;5.63;4.97;;;15.20;99.90;;;;;;4899380;29;20545;-73
2021/03/25 13:42:41;;;;;;;5.90;5.43;;;15.20;99.90;;;;;;4897211;29;20527;-70
2021/03/25 13:45:11;;;;;;;13.33;11.23;;;15.20;99.90;;;;;;4896822;29;20476;-70
2021/03/25 13:47:37;;;;;;;7.17;6.50;;;15.20;99.90;;;;;;4897310;29;20491;-72
2021/03/25 13:50:05;;;;;;;5.10;4.80;;;15.20;99.90;;;;;;4897199;29;20471;-71
2021/03/25 13:52:33;;;;;;;8.17;7.27;;;15.20;99.90;;;;;;4896729;29;20527;-72
2021/03/25 13:54:59;;;;;;;5.63;5.03;;;15.20;99.90;;;;;;4897131;29;20463;-72
2021/03/25 13:57:25;;;;;;;9.00;8.17;;;15.20;99.90;;;;;;4897824;29;20966;-74
2021/03/25 13:59:52;;;;;;;7.77;7.00;;;15.20;99.90;;;;;;4897019;29;20467;-74
2021/03/25 14:02:18;;;;;;;6.30;4.83;;;15.10;99.90;;;;;;4903632;29;20496;-74
2021/03/25 14:04:46;;;;;;;6.23;5.60;;;15.10;99.90;;;;;;4904240;29;20467;-74
2021/03/25 14:07:12;;;;;;;7.50;4.97;;;15.10;99.90;;;;;;4903935;29;21020;-72
2021/03/25 14:09:40;;;;;;;6.40;5.90;;;15.00;99.90;;;;;;4905141;29;20478;-74
2021/03/25 14:12:07;;;;;;;8.03;5.20;;;14.90;99.90;;;;;;4904277;29;20494;-72
2021/03/25 14:14:34;;;;;;;5.33;4.80;;;14.90;99.90;;;;;;4897541;29;20482;-73
2021/03/25 14:17:00;;;;;;;5.80;5.30;;;14.80;99.90;;;;;;4898205;29;20475;-72
2021/03/25 14:19:26;;;;;;;4.47;4.17;;;14.80;99.90;;;;;;4898022;29;20467;-73
2021/03/25 14:21:52;;;;;;;4.63;4.20;;;14.80;99.90;;;;;;4898177;29;20966;-73
2021/03/25 14:24:19;;;;;;;6.13;4.50;;;14.80;99.90;;;;;;4897475;29;20470;-72
2021/03/25 14:26:46;;;;;;;6.40;5.90;;;14.80;99.90;;;;;;4898297;29;20491;-72
2021/03/25 14:29:12;;;;;;;7.30;6.60;;;14.80;99.90;;;;;;4904577;29;20467;-74
2021/03/25 14:31:38;;;;;;;7.70;6.67;;;14.70;99.90;;;;;;4906991;29;20491;-75
2021/03/25 14:34:04;;;;;;;8.70;7.90;;;14.70;99.90;;;;;;4904881;29;20467;-73
2021/03/25 14:36:31;;;;;;;8.20;7.57;;;14.70;99.90;;;;;;4905611;29;20463;-74
2021/03/25 14:38:57;;;;;;;8.77;8.07;;;14.70;99.90;;;;;;4905289;29;20463;-73
2021/03/25 14:41:23;;;;;;;8.67;7.87;;;14.60;99.90;;;;;;4905069;29;20483;-73
2021/03/25 14:43:50;;;;;;;7.93;5.60;;;14.50;99.90;;;;;;4905427;29;20475;-73
2021/03/25 14:46:17;;;;;;;5.97;5.43;;;14.50;99.90;;;;;;4906590;29;20478;-73
2021/03/25 14:48:44;;;;;;;5.40;5.00;;;14.40;99.90;;;;;;4903922;29;20491;-74
2021/03/25 14:51:10;;;;;;;5.73;5.20;;;14.40;99.90;;;;;;4902400;29;20487;-73
2021/03/25 14:53:38;;;;;;;6.10;5.60;;;14.30;99.90;;;;;;4901193;29;20475;-72
2021/03/25 14:56:04;;;;;;;6.13;5.60;;;14.30;99.90;;;;;;4901345;29;21001;-72
2021/03/25 14:58:31;;;;;;;6.33;5.77;;;14.30;99.90;;;;;;4901576;29;20463;-71
2021/03/25 15:00:58;;;;;;;5.80;5.30;;;14.30;99.90;;;;;;4900972;29;20506;-72
2021/03/25 15:03:26;;;;;;;5.13;4.67;;;14.20;99.90;;;;;;4901730;29;20990;-71
2021/03/25 15:05:54;;;;;;;4.73;4.43;;;14.10;99.90;;;;;;4901552;29;20467;-72
2021/03/25 15:08:21;;;;;;;5.60;5.13;;;14.10;99.90;;;;;;4900881;29;20955;-72
2021/03/25 15:10:49;;;;;;;8.13;6.00;;;14.10;99.90;;;;;;4901052;29;21011;-72
2021/03/25 15:13:16;;;;;;;6.17;5.67;;;14.00;99.90;;;;;;4901131;29;20956;-71
2021/03/25 15:15:44;;;;;;;7.40;5.13;;;14.00;99.90;;;;;;4898402;29;20486;-67
2021/03/25 15:18:12;;;;;;;5.47;5.00;;;14.00;99.90;;;;;;4897833;29;20458;-68
2021/03/25 15:20:39;;;;;;;8.73;5.10;;;14.00;99.90;;;;;;4904891;29;20483;-68
2021/03/25 15:23:08;;;;;;;4.60;4.30;;;14.00;99.90;;;;;;4914879;29;20466;-67
2021/03/25 15:25:38;;;;;;;4.50;4.20;;;14.00;99.90;;;;;;4903392;29;20490;-67
2021/03/25 15:28:04;;;;;;;4.53;4.00;;;14.00;99.90;;;;;;4901478;29;20487;-68
2021/03/25 15:30:33;;;;;;;4.33;3.93;;;13.90;99.90;;;;;;4900477;29;20491;-67
2021/03/25 15:33:01;;;;;;;4.87;4.60;;;13.90;99.90;;;;;;4901200;29;20565;-68
2021/03/25 15:35:32;;;;;;;4.53;4.13;;;13.90;99.90;;;;;;4899833;29;20459;-67
2021/03/25 15:37:59;;;;;;;6.83;3.63;;;13.90;99.90;;;;;;4900035;29;20468;-66
2021/03/25 15:40:25;;;;;;;4.20;3.90;;;13.80;99.90;;;;;;4890791;29;20472;-66
2021/03/25 15:42:52;;;;;;;6.57;4.10;;;13.80;99.90;;;;;;4880322;29;20476;-68
2021/03/25 15:45:20;;;;;;;5.93;5.23;;;13.70;99.90;;;;;;4880464;29;20563;-69
2021/03/25 15:47:47;;;;;;;3.87;3.57;;;13.70;99.90;;;;;;4899089;29;20490;-73
2021/03/25 15:50:15;;;;;;;4.60;4.20;;;13.60;99.90;;;;;;4898545;29;20471;-72
2021/03/25 15:52:42;;;;;;;4.13;3.63;;;13.60;99.90;;;;;;4899179;29;20484;-73
2021/03/25 15:55:11;;;;;;;4.17;3.80;;;13.50;99.90;;;;;;4898586;29;20468;-72
2021/03/25 15:57:37;;;;;;;6.33;3.50;;;13.50;99.90;;;;;;4899346;29;20464;-71
2021/03/25 16:00:06;;;;;;;3.60;3.10;;;13.50;99.90;;;;;;4893127;29;20465;-73
2021/03/25 16:02:33;;;;;;;3.23;2.97;;;13.40;99.90;;;;;;4885384;29;20560;-73
2021/03/25 16:04:59;;;;;;;2.93;2.83;;;13.40;99.90;;;;;;4898164;29;20467;-72
2021/03/25 16:07:25;;;;;;;3.70;3.33;;;13.30;99.90;;;;;;4898581;29;20827;-73
2021/03/25 16:09:54;;;;;;;5.13;3.30;;;13.30;99.90;;;;;;4891479;29;20555;-73
2021/03/25 16:12:21;;;;;;;4.33;3.93;;;13.20;99.90;;;;;;4888873;29;20945;-73
2021/03/25 16:14:48;;;;;;;4.90;3.93;;;13.20;99.90;;;;;;4908317;29;20463;-73
2021/03/25 16:17:14;;;;;;;4.33;3.93;;;13.10;99.90;;;;;;4898847;29;20470;-73
2021/03/25 16:19:40;;;;;;;4.70;4.30;;;13.10;99.90;;;;;;4897426;29;20471;-71
2021/03/25 16:22:07;;;;;;;9.07;4.72;;;13.00;99.90;;;;;;4898799;29;20494;-70
2021/03/25 16:24:35;;;;;;;4.93;4.63;;;13.00;99.90;;;;;;4895003;29;20222;-71
2021/03/25 16:27:03;;;;;;;4.57;4.18;;;12.90;99.90;;;;;;4879977;29;20495;-72
2021/03/25 16:29:29;;;;;;;4.13;3.83;;;12.90;99.90;;;;;;4891345;29;20237;-72
2021/03/25 16:31:55;;;;;;;4.77;4.43;;;12.90;99.90;;;;;;4898463;29;20488;-73
2021/03/25 16:34:21;;;;;;;4.53;4.10;;;12.80;99.90;;;;;;4887535;29;20533;-73
2021/03/25 16:36:47;;;;;;;4.93;4.60;;;12.80;99.90;;;;;;4896663;29;20518;-73
2021/03/25 16:39:14;;;;;;;4.38;4.15;;;12.80;99.90;;;;;;4897977;29;20462;-72
2021/03/25 16:41:40;;;;;;;4.25;3.88;;;12.80;99.90;;;;;;4898289;29;20238;-72
2021/03/25 16:44:08;;;;;;;9.93;9.32;;;12.70;99.90;;;;;;4897160;29;21047;-72
2021/03/25 16:46:35;;;;;;;9.23;6.47;;;12.70;99.90;;;;;;4898288;29;20373;-72
2021/03/25 16:49:02;;;;;;;5.20;4.78;;;12.70;99.90;;;;;;4897174;29;20494;-72
2021/03/25 16:51:31;;;;;;;6.78;4.47;;;12.70;99.90;;;;;;4900146;29;20301;-72
2021/03/25 16:53:58;;;;;;;4.28;3.97;;;12.60;99.90;;;;;;4916919;29;20218;-72
2021/03/25 16:56:24;;;;;;;4.65;4.25;;;12.60;99.90;;;;;;4907379;29;20306;-72
2021/03/25 16:58:52;;;;;;;9.07;4.68;;;12.60;99.90;;;;;;4893701;29;20215;-73
2021/03/25 17:01:20;;;;;;;6.05;4.97;;;12.60;99.90;;;;;;4901261;29;20724;-73
2021/03/25 17:03:47;;;;;;;5.20;4.65;;;12.50;99.90;;;;;;4900354;29;20206;-74
2021/03/25 17:06:14;;;;;;;4.70;4.40;;;12.50;99.90;;;;;;4899123;29;20215;-72
2021/03/25 17:08:40;;;;;;;6.13;4.88;;;12.50;99.90;;;;;;4896521;29;20227;-74
2021/03/25 17:11:09;;;;;;;8.40;5.15;;;12.40;99.90;;;;;;4898182;29;20223;-77
2021/03/25 17:13:37;;;;;;;5.78;5.28;;;12.40;99.90;;;;;;4895710;29;20215;-75
2021/03/25 17:16:04;;;;;;;5.95;5.45;;;12.40;99.90;;;;;;4900141;29;20629;-75
2021/03/25 17:18:31;;;;;;;9.52;6.55;;;12.40;99.90;;;;;;4894670;29;20199;-74
2021/03/25 17:20:58;;;;;;;6.28;5.80;;;12.40;99.90;;;;;;4894511;29;20230;-74
2021/03/25 17:23:27;;;;;;;6.72;6.20;;;12.30;99.90;;;;;;4900255;29;20211;-74
2021/03/25 17:25:54;;;;;;;7.70;6.47;;;12.30;99.90;;;;;;4898130;29;20219;-72
2021/03/25 17:28:23;;;;;;;8.90;7.35;;;12.30;99.90;;;;;;4900791;29;20234;-73
2021/03/25 17:30:50;;;;;;;10.88;7.90;;;12.20;99.90;;;;;;4893816;29;20256;-73
2021/03/25 17:33:17;;;;;;;10.55;7.38;;;12.20;99.90;;;;;;4881605;29;20208;-73
2021/03/25 17:35:45;;;;;;;8.70;7.90;;;12.20;99.90;;;;;;4881580;29;20215;-73
2021/03/25 17:38:12;;;;;;;21.60;15.38;;;12.10;99.90;;;;;;4883499;29;20230;-72
2021/03/25 17:40:39;;;;;;;12.30;9.13;;;12.10;99.90;;;;;;4900638;29;20291;-73
2021/03/25 17:43:06;;;;;;;9.07;7.30;;;12.00;99.90;;;;;;4900967;29;20214;-72
2021/03/25 17:45:35;;;;;;;12.55;9.32;;;12.00;99.90;;;;;;4899368;29;20221;-71
2021/03/25 17:48:02;;;;;;;45.65;24.60;;;11.90;99.90;;;;;;4897524;29;20235;-71
2021/03/25 17:50:28;;;;;;;39.22;23.55;;;11.90;99.90;;;;;;4896908;29;20239;-71
2021/03/25 17:52:57;;;;;;;45.40;26.50;;;11.80;99.90;;;;;;4897057;29;20211;-71
2021/03/25 17:55:24;;;;;;;44.50;25.98;;;11.80;99.90;;;;;;4896741;29;20199;-71
2021/03/25 17:57:51;;;;;;;41.38;24.45;;;11.70;99.90;;;;;;4896790;29;20215;-71
2021/03/25 18:00:20;;;;;;;31.90;20.48;;;11.60;99.90;;;;;;4896443;29;20219;-72